Terminal Aerodrome Forecast
Issued by NWS Tulsa, OK

Home | Current Version | Previous Version | Text Only | Print | Product List | Glossary On
Versions: 1 2 3 4 5 6 7 8 9 10 11 12 13 14
000
FTUS44 KTSA 221731
TAFFSM
TAF
KFSM 221731Z 2218/2318 28012KT P6SM OVC012
      TEMPO 2218/2222 OVC008
     FM230200 29008KT P6SM OVC012
     FM231500 30010KT P6SM BKN020=

USA.gov is the U.S. government's official web portal to all federal, state and local government web resources and services.